Latest Weather Observations for Murrurundi Gap

IDN60801

Issued at 4:42 am EST Wednesday 17 July 2019 (issued every 10 minutes, with the page automatically refreshed every 10 minutes)

About weather observations | Map of weather stations | Latest weather observations for NSW | Other Formats
Station Details ID: 061392 Name: MURRURUNDI GAP AWS Lat: -31.74 Lon: 150.79 Height: 729.4 m
Data from the previous 72 hours. | See also: Recent months at Murrurundi Gap
Date/Time
EST
Temp
°C
App
Temp
°C
Dew
Point
°C
Rel
Hum
%
Delta-T
°C
Wind Press
QNH
hPa
Press
MSL
hPa
Rain since
9am
mm
Dir  Spd
km/h
Gust
km/h
Spd
kts
Gust
kts
17/04:30am 4.0 2.3 2.0 87 0.8 CALM 0 0 0 0 1019.6 1019.8 0.0
17/04:00am 4.5 2.4 2.0 84 1.0 S 2 6 1 3 1019.7 1020.0 0.0
17/03:30am 3.9 0.8 1.3 83 1.1 ESE 7 9 4 5 1019.7 1020.0 0.0
17/03:00am 5.3 1.9 2.1 80 1.3 SE 9 11 5 6 1020.0 1020.3 0.0
17/02:30am 5.0 3.0 2.2 82 1.2 WNW 2 6 1 3 1020.4 1020.6 0.0
17/02:00am 4.7 1.3 1.9 82 1.2 NW 9 11 5 6 1020.6 1020.8 0.0
17/01:30am 4.8 1.4 2.0 82 1.2 NW 9 9 5 5 1020.6 1020.8 0.0
17/01:00am 4.9 1.1 1.9 81 1.3 NW 11 13 6 7 1020.8 1021.0 0.0
17/12:30am 5.4 1.7 2.1 79 1.4 WNW 11 13 6 7 1021.0 1021.3 0.0
17/12:00am 5.0 0.8 1.7 79 1.4 WNW 13 17 7 9 1021.0 1021.3 0.0
 
Date/Time
EST
Temp
°C
App
Temp
°C
Dew
Point
°C
Rel
Hum
%
Delta-T
°C
Wind Press
QNH
hPa
Press
MSL
hPa
Rain since
9am
mm
Dir  Spd
km/h
Gust
km/h
Spd
kts
Gust
kts
16/11:30pm 6.1 3.3 2.0 75 1.7 NNW 6 9 3 5 1021.4 1021.7 0.0
16/11:00pm 5.9 2.9 1.8 75 1.7 NW 7 13 4 7 1021.5 1021.8 0.0
16/10:30pm 6.2 2.8 1.9 74 1.8 NW 9 13 5 7 1021.5 1021.8 0.0
16/10:00pm 6.8 1.9 2.1 72 2.0 W 17 26 9 14 1021.3 1021.6 0.0
16/09:30pm 6.9 2.4 2.2 72 2.0 S 15 30 8 16 1021.3 1021.6 0.0
16/09:00pm 7.9 2.0 2.0 66 2.5 SW 22 33 12 18 1021.4 1021.7 0.0
16/08:30pm 8.4 5.1 2.4 66 2.6 WNW 9 13 5 7 1021.3 1021.6 0.0
16/08:00pm 8.7 4.7 2.7 66 2.6 N 13 17 7 9 1021.1 1021.4 0.0
16/07:30pm 8.3 4.7 2.8 68 2.4 NW 11 15 6 8 1021.1 1021.4 0.0
16/07:00pm 8.2 3.8 2.9 69 2.3 WNW 15 20 8 11 1020.8 1021.0 0.0
16/06:30pm 8.7 3.6 2.9 67 2.6 WNW 19 24 10 13 1020.4 1020.6 0.0
16/06:00pm 8.7 3.9 2.7 66 2.6 NNW 17 22 9 12 1020.3 1020.5 0.0
16/05:30pm 9.1 3.4 2.9 65 2.8 NW 22 26 12 14 1019.9 1020.2 0.0
16/05:00pm 10.0 3.9 2.8 61 3.2 NW 24 30 13 16 1019.8 1020.1 0.0
16/04:30pm 10.8 4.7 2.9 58 3.6 NW 24 30 13 16 1019.7 1020.0 0.0
16/04:00pm 11.0 5.3 2.8 57 3.7 NW 22 28 12 15 1019.8 1020.1 0.0
16/03:30pm 10.9 4.8 2.7 57 3.7 NNW 24 28 13 15 1019.9 1020.2 0.0
16/03:00pm 11.5 5.9 3.3 57 3.8 NW 22 28 12 15 1020.0 1020.3 0.0
16/02:30pm 10.8 5.1 2.9 58 3.6 NW 22 28 12 15 1020.2 1020.4 0.0
16/02:00pm 10.6 4.6 3.2 60 3.4 WNW 24 28 13 15 1020.0 1020.3 0.0
16/01:30pm 10.2 3.8 3.0 61 3.2 NW 26 32 14 17 1020.2 1020.4 0.0
16/01:00pm 9.9 3.1 3.0 62 3.1 NW 28 33 15 18 1020.2 1020.4 0.0
16/12:30pm 9.1 2.6 2.4 63 3.0 NW 26 33 14 18 1020.3 1020.5 0.0
16/12:00pm 8.5 1.5 1.9 63 2.9 NW 28 35 15 19 1020.5 1020.7 0.0
16/11:30am 8.3 0.7 2.8 68 2.4 NW 32 39 17 21 1020.6 1020.8 0.0
16/11:00am 7.8 0.1 2.5 69 2.3 NW 32 43 17 23 1020.7 1020.9 0.0
16/10:30am 7.2 -0.7 2.3 71 2.1 NW 33 41 18 22 1020.7 1020.9 0.0
16/10:00am 6.3 -1.6 2.0 74 1.8 NW 33 39 18 21 1020.9 1021.2 0.0
16/09:30am 5.8 -1.9 2.1 77 1.6 NW 32 37 17 20 1021.3 1021.6 0.0
16/09:00am 4.7 -2.3 1.7 81 1.2 NW 28 35 15 19 1021.1 1021.4 0.0
16/08:30am 3.9 -3.5 1.9 87 0.8 NW 30 33 16 18 1020.9 1021.2 0.0
16/08:00am 2.9 -3.1 1.3 89 0.6 WNW 22 26 12 14 1021.0 1021.3 0.0
16/07:30am 2.7 -2.0 1.2 90 0.6 WNW 15 17 8 9 1021.1 1021.4 0.0
16/07:00am 2.3 -3.7 1.1 92 0.5 NW 22 26 12 14 1020.7 1020.9 0.0
16/06:30am 1.5 -5.3 0.9 96 0.2 NW 26 30 14 16 1020.5 1020.7 0.0
16/06:00am 2.1 -4.3 1.1 93 0.4 NW 24 26 13 14 1019.9 1020.2 0.0
16/05:30am 2.1 -4.3 1.1 93 0.4 NW 24 28 13 15 1019.5 1019.7 0.0
16/05:00am 2.4 -3.2 0.9 90 0.6 NW 20 24 11 13 1019.1 1019.3 0.0
16/04:30am 3.6 -1.4 1.3 85 0.9 WNW 17 20 9 11 1019.2 1019.4 0.0
16/04:00am 3.5 -1.9 1.2 85 0.9 NW 19 20 10 11 1019.3 1019.5 0.0
16/03:30am 3.6 -1.5 1.0 83 1.0 NW 17 19 9 10 1019.7 1020.0 0.0
16/03:00am 3.6 -1.5 1.0 83 1.0 NW 17 20 9 11 1019.8 1020.1 0.0
16/02:30am 3.7 -1.0 1.1 83 1.1 NW 15 17 8 9 1020.3 1020.5 0.0
16/02:00am 3.6 -1.1 0.8 82 1.1 NW 15 17 8 9 1020.6 1020.8 0.0
16/01:30am 4.3 -0.3 1.3 81 1.2 NW 15 17 8 9 1020.8 1021.0 0.0
16/01:00am 3.4 -1.0 0.6 82 1.1 WNW 13 15 7 8 1021.0 1021.3 0.0
16/12:30am 4.5 0.3 1.4 80 1.3 NW 13 13 7 7 1021.2 1021.5 0.0
16/12:00am 4.1 0.6 1.0 80 1.3 NW 9 13 5 7 1021.2 1021.5 0.0
 
Date/Time
EST
Temp
°C
App
Temp
°C
Dew
Point
°C
Rel
Hum
%
Delta-T
°C
Wind Press
QNH
hPa
Press
MSL
hPa
Rain since
9am
mm
Dir  Spd
km/h
Gust
km/h
Spd
kts
Gust
kts
15/11:30pm 3.8 -0.5 0.8 81 1.2 NW 13 17 7 9 1021.3 1021.6 0.0
15/11:00pm 4.0 0.0 0.7 79 1.3 NW 11 15 6 8 1021.5 1021.8 0.0
15/10:30pm 4.2 -0.1 0.9 79 1.3 NW 13 15 7 8 1021.5 1021.8 0.0
15/10:00pm 4.2 -0.5 0.7 78 1.4 NW 15 22 8 12 1021.7 1021.9 0.0
15/09:30pm 4.9 -0.5 1.0 76 1.6 NW 19 22 10 12 1021.7 1021.9 0.0
15/09:00pm 4.5 -0.6 0.8 77 1.5 NW 17 19 9 10 1021.5 1021.8 0.0
15/08:30pm 4.9 0.6 1.0 76 1.6 WNW 13 17 7 9 1021.4 1021.7 0.0
15/08:00pm 5.3 1.0 0.9 73 1.8 NW 13 15 7 8 1021.3 1021.6 0.0
15/07:30pm 6.3 1.9 0.6 67 2.3 NW 13 15 7 8 1021.0 1021.3 0.0
15/07:00pm 6.9 3.3 0.6 64 2.6 WNW 9 15 5 8 1020.7 1020.9 0.0
15/06:30pm 7.4 2.7 0.8 63 2.8 W 15 20 8 11 1020.4 1020.6 0.0
15/06:00pm 7.5 3.1 0.5 61 2.9 W 13 17 7 9 1020.3 1020.5 0.0
15/05:30pm 8.4 4.0 0.4 57 3.3 W 13 20 7 11 1020.0 1020.3 0.0
15/05:00pm 9.3 5.7 0.5 54 3.7 W 9 15 5 8 1019.7 1020.0 0.0
15/04:30pm 10.2 6.0 -1.2 45 4.7 SW 11 20 6 11 1019.5 1019.7 0.0
15/04:00pm 10.7 6.7 0.4 49 4.4 W 11 24 6 13 1019.1 1019.3 0.0
15/03:30pm 11.0 5.3 0.7 49 4.4 W 20 30 11 16 1018.9 1019.1 0.0
15/03:00pm 11.6 8.1 1.3 49 4.5 WSW 9 19 5 10 1018.5 1018.8 0.0
15/02:30pm 11.2 6.6 1.5 51 4.3 WSW 15 24 8 13 1018.3 1018.5 0.0
15/02:00pm 9.7 6.1 0.6 53 3.9 SW 9 17 5 9 1018.3 1018.5 0.0
15/01:30pm 11.5 7.0 2.0 52 4.2 W 15 22 8 12 1018.3 1018.5 0.0
15/01:00pm 10.6 6.0 1.7 54 3.9 SW 15 26 8 14 1018.5 1018.8 0.0
15/12:30pm 11.3 7.7 3.1 57 3.7 WSW 11 20 6 11 1018.4 1018.6 0.0
15/12:00pm 9.9 5.3 3.6 65 2.9 NW 17 22 9 12 1018.5 1018.8 0.0
15/11:30am 7.8 3.0 4.4 79 1.6 N 19 24 10 13 1019.2 1019.4 0.0
15/11:00am 7.5 0.5 4.3 80 1.5 WNW 30 39 16 21 1019.0 1019.2 0.0
15/10:47am 7.1 2.0 3.9 80 1.4 NW 20 35 11 19 1019.2 1019.4 0.0
15/10:30am 6.7 0.8 3.9 82 1.3 NNW 24 33 13 18 1019.7 1020.0 0.0
15/10:00am 5.5 0.0 4.2 91 0.6 NW 22 35 12 19 1019.7 1020.0 0.0
15/09:30am 5.3 -0.8 5.0 98 0.1 NNW 26 46 14 25 1019.8 1020.1 0.0
15/09:21am 5.0 -1.2 4.1 94 0.4 NNW 26 46 14 25 1019.5 1019.7 0.0
15/09:00am 3.6 -1.0 3.5 99 0.0 NW 17 26 9 14 1020.2 1020.4 0.2
15/08:50am 3.5 -1.2 3.4 99 0.0 NW 17 24 9 13 1020.4 1020.6 0.2
15/08:30am 3.4 -1.8 3.3 99 0.0 NNW 20 26 11 14 1019.5 1019.7 0.2
15/08:00am 3.6 -1.5 2.9 95 0.3 NNW 19 30 10 16 1019.0 1019.2 0.2
15/07:53am 3.8 -1.9 2.6 92 0.5 N 22 30 12 16 1018.8 1019.0 0.0
15/07:34am 3.9 -1.9 2.4 90 0.6 NNW 22 32 12 17 1018.7 1018.9 0.0
15/07:30am 4.0 -2.1 2.5 90 0.6 N 24 32 13 17 1018.8 1019.0 0.0
15/07:00am 3.8 -2.4 2.2 89 0.7 NNW 24 35 13 19 1018.0 1018.2 0.0
15/06:30am 3.7 -1.6 1.7 87 0.8 WNW 19 24 10 13 1018.3 1018.5 0.0
15/06:00am 3.5 -4.3 1.7 88 0.7 WNW 32 41 17 22 1017.0 1017.2 0.0
15/05:57am 3.3 -4.5 1.5 88 0.7 NW 32 41 17 22 1017.0 1017.2 0.0
15/05:30am 3.5 -5.2 1.7 88 0.7 NNW 37 46 20 25 1015.9 1016.0 0.0
15/05:00am 3.5 -4.3 1.5 87 0.8 NW 32 39 17 21 1016.1 1016.2 0.0
15/04:30am 3.3 -4.5 1.5 88 0.7 NW 32 41 17 22 1016.2 1016.4 0.0
15/04:00am 2.8 -4.0 1.0 88 0.7 NW 26 32 14 17 1016.7 1016.9 0.0
15/03:30am 3.1 -4.4 1.0 86 0.8 NW 30 35 16 19 1016.8 1017.0 0.0
15/03:00am 3.2 -3.9 1.1 86 0.8 NW 28 33 15 18 1017.6 1017.8 0.0
15/02:30am 3.4 -5.1 0.8 83 1.0 NW 35 43 19 23 1017.5 1017.7 0.0
15/02:00am 2.5 -4.7 0.6 87 0.7 NW 28 33 15 18 1017.8 1018.0 0.0
15/01:30am 2.7 -6.6 0.3 84 0.9 NNW 39 46 21 25 1017.4 1017.6 0.0
15/01:00am 2.6 -5.1 -0.2 82 1.1 NW 30 39 16 21 1018.1 1018.3 0.0
15/12:30am 2.6 -4.7 -0.3 81 1.1 NW 28 35 15 19 1019.3 1019.5 0.0
15/12:00am 2.8 -5.0 -0.6 78 1.3 NW 30 37 16 20 1019.5 1019.7 0.0
 
Date/Time
EST
Temp
°C
App
Temp
°C
Dew
Point
°C
Rel
Hum
%
Delta-T
°C
Wind Press
QNH
hPa
Press
MSL
hPa
Rain since
9am
mm
Dir  Spd
km/h
Gust
km/h
Spd
kts
Gust
kts
14/11:30pm 3.0 -4.4 -0.8 76 1.5 NW 28 33 15 18 1019.7 1020.0 0.0
14/11:00pm 2.6 -4.1 -1.0 77 1.4 NNW 24 30 13 16 1019.7 1020.0 0.0
14/10:30pm 1.9 -3.9 -1.2 80 1.2 NW 19 24 10 13 1020.3 1020.5 0.0
14/10:00pm 3.2 -3.8 -0.8 75 1.5 NW 26 32 14 17 1020.4 1020.6 0.0
14/09:30pm 3.6 -4.2 -0.6 74 1.6 NW 30 39 16 21 1020.4 1020.6 0.0
14/09:00pm 4.1 -4.6 -0.5 72 1.8 NNW 35 43 19 23 1019.7 1020.0 0.0
14/08:30pm 4.4 -3.7 -0.6 70 2.0 NW 32 39 17 21 1020.0 1020.3 0.0
14/08:00pm 4.9 -3.8 -0.5 68 2.1 NNW 35 43 19 23 1019.9 1020.2 0.0
14/07:30pm 5.2 -3.1 -0.6 66 2.3 NW 33 41 18 22 1020.3 1020.5 0.0
14/07:00pm 5.9 -3.2 -0.6 63 2.6 NW 37 46 20 25 1020.0 1020.3 0.0
14/06:30pm 6.7 -2.8 -1.0 58 3.1 NW 39 46 21 25 1019.6 1019.8 0.0
14/06:00pm 7.1 -1.2 -1.8 53 3.5 NNW 32 39 17 21 1019.7 1020.0 0.0
14/05:30pm 8.0 -0.9 -2.0 49 3.9 NW 35 43 19 23 1019.7 1020.0 0.0
14/05:00pm 8.7 0.7 -2.3 46 4.3 NW 30 35 16 19 1019.8 1020.1 0.0
14/04:30pm 9.6 1.6 -2.3 43 4.7 NW 30 35 16 19 1019.7 1020.0 0.0
14/04:00pm 9.3 1.5 -0.8 49 4.1 NW 30 39 16 21 1020.2 1020.4 0.0
14/03:30pm 9.2 1.2 0.1 53 3.8 NW 32 39 17 21 1020.0 1020.3 0.0
14/03:00pm 8.9 0.5 -0.7 51 3.9 NW 33 39 18 21 1020.2 1020.4 0.0
14/02:30pm 9.0 0.7 -0.3 52 3.8 NW 33 41 18 22 1020.3 1020.5 0.0
14/02:00pm 8.1 0.0 -0.4 55 3.5 NW 32 43 17 23 1020.7 1020.9 0.0
14/01:30pm 7.7 -1.5 -1.0 54 3.5 NW 37 46 20 25 1020.8 1021.0 0.0
14/01:00pm 7.4 -0.9 -0.3 58 3.1 NW 33 46 18 25 1021.1 1021.4 0.0
14/12:30pm 7.1 -1.2 -0.1 60 2.9 NW 33 46 18 25 1021.9 1022.1 0.0
14/12:00pm 6.3 -2.0 -0.2 63 2.6 NW 33 44 18 24 1022.1 1022.4 0.0
14/11:30am 6.6 -1.5 -0.4 61 2.8 NW 32 46 17 25 1022.6 1022.9 0.0
14/11:00am 5.9 -0.7 -0.2 65 2.4 NNW 24 32 13 17 1023.5 1023.8 0.0
14/10:30am 5.7 -0.4 0.1 67 2.3 NW 22 32 12 17 1023.6 1023.9 0.0
14/10:00am 4.8 -1.3 0.4 73 1.8 NW 22 28 12 15 1023.7 1024.0 0.0
14/09:30am 4.0 -1.8 -0.4 73 1.7 NW 20 26 11 14 1023.9 1024.2 0.0
14/09:00am 4.0 -1.2 0.0 75 1.6 NNW 17 20 9 11 1024.0 1024.3 0.4
14/08:30am 3.2 -2.5 -0.8 75 1.5 NW 19 24 10 13 1023.7 1024.0 0.4
14/08:00am 2.3 -3.1 -1.5 76 1.4 NNW 17 22 9 12 1023.5 1023.8 0.4
14/07:30am 2.5 -2.1 -1.1 77 1.4 N 13 19 7 10 1023.4 1023.7 0.4
14/07:00am 1.9 -2.3 -1.0 81 1.1 NNW 11 15 6 8 1023.3 1023.6 0.4
14/06:30am 1.9 -2.3 -1.2 80 1.2 NW 11 15 6 8 1022.8 1023.1 0.4
14/06:00am 1.4 -3.2 -1.2 83 1.0 WNW 13 17 7 9 1022.8 1023.1 0.4
14/05:30am 1.9 -2.0 -1.2 80 1.2 WNW 9 13 5 7 1022.4 1022.7 0.4
14/05:00am 1.7 -2.2 -1.2 81 1.1 WNW 9 13 5 7 1022.4 1022.7 0.4

Other formats

Comma delimited format used in spreadsheet applications
http://www.bom.gov.au/fwo/IDN60801/IDN60801.95747.axf

JavaScript Object Notation format (JSON) in row-major order
http://www.bom.gov.au/fwo/IDN60801/IDN60801.95747.json

Data quality

Most of these data are generated automatically and are frequently updated. Quality checks on data are not normally performed. It is possible for incorrect values to appear. Refer to information at About Latest Weather Observations and please check the disclaimer before using these data.